Time;durP1;ratioP1;P1;durP2;ratioP2;P2;SDS_P1;SDS_P2;PMS_P1;PMS_P2;Temp;Humidity;BMP_temperature;BMP_pressure;BME280_temperature;BME280_humidity;BME280_pressure;Samples;Min_cycle;Max_cycle;Signal;HPM_P1;HPM_P2
2023/06/25 00:00:15;;;;;;;12.13;6.33;;;;;;;22.98;100.00;101556.88;2080414;28;20216;-61
2023/06/25 00:01:16;;;;;;;16.43;7.23;;;;;;;23.01;100.00;101555.88;2079869;28;20205;-61
2023/06/25 00:02:16;;;;;;;10.67;6.83;;;;;;;22.45;100.00;101472.47;2080052;28;20177;-61
2023/06/25 00:03:17;;;;;;;16.40;6.83;;;;;;;23.04;100.00;101552.84;2080614;28;20234;-61
2023/06/25 00:04:17;;;;;;;14.37;6.87;;;;;;;23.05;100.00;101545.91;2080132;28;20234;-61
2023/06/25 00:05:18;;;;;;;10.03;6.40;;;;;;;23.08;100.00;101552.63;2080720;28;20192;-62
2023/06/25 00:06:19;;;;;;;7.73;5.97;;;;;;;23.08;100.00;101542.09;2080906;28;20307;-62
2023/06/25 00:07:20;;;;;;;11.97;6.27;;;;;;;23.04;100.00;101543.59;2080664;28;20196;-61
2023/06/25 00:08:20;;;;;;;14.23;5.83;;;;;;;23.03;100.00;101537.13;2080418;28;20222;-61
2023/06/25 00:09:20;;;;;;;9.20;6.07;;;;;;;22.98;100.00;101537.09;2080602;28;20264;-61
2023/06/25 00:10:21;;;;;;;9.03;5.77;;;;;;;22.89;100.00;101515.41;2080524;28;20173;-61
2023/06/25 00:11:21;;;;;;;9.57;5.93;;;;;;;23.00;100.00;101534.53;2080763;28;20200;-61
2023/06/25 00:12:22;;;;;;;14.27;5.50;;;;;;;22.44;100.00;101431.38;2072402;28;20193;-62
2023/06/25 00:13:23;;;;;;;16.23;5.70;;;;;;;22.95;100.00;101519.06;2079878;28;20191;-61
2023/06/25 00:14:23;;;;;;;10.77;5.70;;;;;;;23.01;100.00;101517.09;2080012;28;20195;-61
2023/06/25 00:15:23;;;;;;;11.20;5.47;;;;;;;23.02;100.00;101523.53;2080259;28;20216;-62
2023/06/25 00:16:25;;;;;;;9.33;5.43;;;;;;;23.01;100.00;101521.94;2080557;28;20200;-61
2023/06/25 00:17:27;;;;;;;11.17;5.83;;;;;;;23.01;100.00;101517.09;2080492;28;20658;-61
2023/06/25 00:18:28;;;;;;;8.17;5.50;;;;;;;22.99;100.00;101524.50;2080394;28;20169;-61
2023/06/25 00:19:28;;;;;;;10.00;5.40;;;;;;;22.95;100.00;101527.56;2079713;28;20276;-61
2023/06/25 00:20:29;;;;;;;12.00;5.40;;;;;;;22.89;100.00;101521.06;2080079;28;20206;-61
2023/06/25 00:21:29;;;;;;;12.60;5.87;;;;;;;22.86;100.00;101518.44;2080748;28;20232;-61
2023/06/25 00:22:30;;;;;;;11.10;5.80;;;;;;;22.83;100.00;101520.19;2080139;28;20235;-61
2023/06/25 00:23:30;;;;;;;10.83;5.60;;;;;;;22.79;100.00;101504.72;2080671;28;20216;-61
2023/06/25 00:24:31;;;;;;;9.63;5.50;;;;;;;22.80;100.00;101521.19;2080034;28;20180;-61
2023/06/25 00:25:31;;;;;;;13.50;5.60;;;;;;;22.82;100.00;101509.41;2080499;28;20192;-61
2023/06/25 00:26:32;;;;;;;11.97;5.20;;;;;;;22.72;100.00;101500.28;2080534;28;20311;-61
2023/06/25 00:27:32;;;;;;;11.70;5.63;;;;;;;22.79;100.00;101507.56;2080536;28;20177;-62
2023/06/25 00:28:32;;;;;;;7.87;5.53;;;;;;;22.74;100.00;101499.78;2080544;28;20173;-61
2023/06/25 00:29:34;;;;;;;10.27;5.17;;;;;;;22.71;100.00;101501.56;2080268;28;20191;-61
2023/06/25 00:30:35;;;;;;;11.83;5.97;;;;;;;22.69;100.00;101495.63;2080290;28;20185;-61
2023/06/25 00:31:37;;;;;;;11.90;5.90;;;;;;;22.62;100.00;101481.91;2080005;28;20193;-61
2023/06/25 00:32:37;;;;;;;12.73;6.00;;;;;;;22.72;100.00;101491.81;2080217;28;20243;-62
2023/06/25 00:33:38;;;;;;;15.60;6.60;;;;;;;22.79;100.00;101494.22;2080260;28;20184;-61
2023/06/25 00:34:42;;;;;;;12.20;5.80;;;;;;;22.78;100.00;101495.47;2080460;28;20234;-61
2023/06/25 00:36:06;;;;;;;10.10;6.00;;;;;;;22.77;100.00;101493.16;2080490;28;20226;-61
2023/06/25 00:37:16;;;;;;;11.43;5.63;;;;;;;22.71;100.00;101472.50;2080369;28;20187;-61
2023/06/25 00:38:17;;;;;;;9.47;6.33;;;;;;;22.77;100.00;101485.44;2080228;28;20644;-60
2023/06/25 00:39:21;;;;;;;10.87;5.97;;;;;;;22.81;100.00;101480.34;2080376;28;20201;-61
2023/06/25 00:40:21;;;;;;;12.07;6.33;;;;;;;22.82;100.00;101484.72;2080319;28;20177;-61
2023/06/25 00:41:21;;;;;;;9.33;6.00;;;;;;;22.80;100.00;101484.47;2080433;28;20207;-61
2023/06/25 00:42:22;;;;;;;10.00;6.57;;;;;;;22.74;100.00;101486.44;2079324;28;20192;-61
2023/06/25 00:43:22;;;;;;;9.47;6.37;;;;;;;22.76;100.00;101483.91;2079769;28;20276;-61
2023/06/25 00:44:23;;;;;;;12.37;6.87;;;;;;;22.79;100.00;101482.91;2079974;28;20177;-60
2023/06/25 00:45:26;;;;;;;14.13;6.53;;;;;;;22.36;100.00;101406.84;2080436;28;20200;-61
2023/06/25 00:46:27;;;;;;;13.00;6.00;;;;;;;22.83;100.00;101477.03;2080293;28;20196;-62
2023/06/25 00:47:27;;;;;;;10.80;6.20;;;;;;;22.83;100.00;101482.69;2082081;28;20227;-61
2023/06/25 00:48:28;;;;;;;10.10;6.07;;;;;;;22.83;100.00;101486.28;2081999;28;20184;-61
2023/06/25 00:49:33;;;;;;;12.33;6.50;;;;;;;22.85;100.00;101474.47;2080497;28;20258;-61
2023/06/25 00:50:33;;;;;;;10.97;6.53;;;;;;;22.92;100.00;101474.06;2075172;28;20162;-61
2023/06/25 00:51:36;;;;;;;12.30;6.30;;;;;;;22.57;100.00;101420.47;2089554;28;20172;-61
2023/06/25 00:52:36;;;;;;;10.23;6.03;;;;;;;22.84;100.00;101461.63;2089493;28;20183;-61
2023/06/25 00:53:38;;;;;;;14.53;6.60;;;;;;;22.89;100.00;101472.22;2081920;28;20223;-61
2023/06/25 00:54:41;;;;;;;10.17;6.13;;;;;;;22.91;100.00;101461.97;2082277;28;20185;-61
2023/06/25 00:55:41;;;;;;;10.70;6.10;;;;;;;22.97;100.00;101462.03;2081771;28;20193;-61
2023/06/25 00:56:41;;;;;;;10.27;5.97;;;;;;;22.47;100.00;101376.72;2082179;28;20216;-61
2023/06/25 00:57:42;;;;;;;9.93;6.03;;;;;;;22.99;100.00;101451.00;2081751;28;20777;-62
2023/06/25 00:58:43;;;;;;;8.03;5.60;;;;;;;23.03;100.00;101460.81;2081662;28;20184;-62
2023/06/25 00:59:44;;;;;;;11.47;6.17;;;;;;;23.02;100.00;101458.50;2081793;28;20721;-61
2023/06/25 01:00:46;;;;;;;9.13;5.70;;;;;;;23.05;100.00;101457.50;2081995;28;20177;-61
2023/06/25 01:01:54;;;;;;;13.70;6.47;;;;;;;23.04;100.00;101456.72;2082316;28;20196;-62
2023/06/25 01:03:26;;;;;;;13.37;6.00;;;;;;;23.05;100.00;101452.63;2081609;28;20553;-62
2023/06/25 01:04:35;;;;;;;13.67;5.80;;;;;;;23.03;100.00;101448.75;2074983;28;20158;-61
2023/06/25 01:05:44;;;;;;;14.37;5.83;;;;;;;22.99;100.00;101445.34;2081927;28;20157;-62
2023/06/25 01:06:51;;;;;;;9.93;5.80;;;;;;;22.97;100.00;101448.66;2081830;28;20165;-61
2023/06/25 01:07:57;;;;;;;13.00;6.13;;;;;;;22.98;100.00;101444.56;2082341;28;20150;-61
2023/06/25 01:08:59;;;;;;;11.67;6.10;;;;;;;23.01;100.00;101442.78;2081878;28;20666;-61
2023/06/25 01:10:00;;;;;;;13.57;6.27;;;;;;;23.02;100.00;101436.66;2081192;28;20180;-61
2023/06/25 01:11:02;;;;;;;10.33;6.10;;;;;;;23.01;100.00;101439.97;2082118;28;20654;-61
2023/06/25 01:12:04;;;;;;;11.60;5.87;;;;;;;23.02;100.00;101447.94;2081839;28;20197;-61
2023/06/25 01:13:05;;;;;;;8.80;6.00;;;;;;;23.02;100.00;101450.03;2081710;28;20638;-61
2023/06/25 01:14:05;;;;;;;18.27;6.87;;;;;;;22.54;100.00;101376.28;2081676;28;20197;-62
2023/06/25 01:15:09;;;;;;;11.57;6.10;;;;;;;22.30;100.00;101339.00;2081910;28;20565;-61
2023/06/25 01:16:09;;;;;;;13.43;7.20;;;;;;;23.03;100.00;101455.16;2081932;28;20196;-61
2023/06/25 01:17:10;;;;;;;11.27;6.40;;;;;;;23.02;100.00;101450.78;2081862;28;20263;-61
2023/06/25 01:18:13;;;;;;;10.23;6.17;;;;;;;23.01;100.00;101446.41;2081729;28;20173;-61
2023/06/25 01:19:16;;;;;;;12.93;6.83;;;;;;;22.94;100.00;101429.09;2081607;28;20223;-62
2023/06/25 01:20:17;;;;;;;11.07;5.83;;;;;;;23.00;100.00;101444.06;2081599;28;20264;-61
2023/06/25 01:21:23;;;;;;;11.97;6.37;;;;;;;23.04;100.00;101445.41;2082223;28;20181;-61
2023/06/25 01:22:29;;;;;;;12.13;6.63;;;;;;;22.73;100.00;101402.94;2081645;28;20433;-61
2023/06/25 01:23:30;;;;;;;12.17;6.43;;;;;;;23.02;100.00;101442.31;2081385;28;20196;-61
2023/06/25 01:24:34;;;;;;;11.33;6.37;;;;;;;23.00;100.00;101442.03;2075048;28;20190;-61
2023/06/25 01:25:38;;;;;;;15.00;6.30;;;;;;;22.99;100.00;101439.69;2079478;28;20634;-61
2023/06/25 01:26:38;;;;;;;10.23;6.17;;;;;;;22.84;100.00;101431.34;2081831;28;20217;-61
2023/06/25 01:27:39;;;;;;;11.43;6.20;;;;;;;22.85;100.00;101430.06;2078118;28;20232;-61
2023/06/25 01:28:39;;;;;;;13.93;6.53;;;;;;;22.85;100.00;101426.44;2076398;28;20195;-61
2023/06/25 01:29:39;;;;;;;12.80;5.87;;;;;;;22.79;100.00;101423.56;2081914;28;20170;-61
2023/06/25 01:30:40;;;;;;;8.43;5.33;;;;;;;22.77;100.00;101419.69;2081909;28;20665;-61
2023/06/25 01:31:40;;;;;;;11.60;5.57;;;;;;;22.79;100.00;101428.44;2082036;28;20220;-61
2023/06/25 01:32:41;;;;;;;11.83;6.83;;;;;;;22.80;100.00;101427.16;2081496;28;20188;-61
2023/06/25 01:33:41;;;;;;;12.37;5.50;;;;;;;22.75;100.00;101423.00;2081276;28;20218;-62
2023/06/25 01:34:42;;;;;;;13.40;6.10;;;;;;;22.77;100.00;101414.78;2081807;28;20207;-61
2023/06/25 01:35:42;;;;;;;13.70;6.20;;;;;;;22.77;100.00;101417.63;2081763;28;20223;-61
2023/06/25 01:36:43;;;;;;;9.50;6.10;;;;;;;22.77;100.00;101420.44;2081320;28;20192;-61
2023/06/25 01:37:43;;;;;;;12.23;6.50;;;;;;;22.80;100.00;101413.81;2081774;28;20657;-61
2023/06/25 01:38:44;;;;;;;14.10;6.50;;;;;;;22.77;100.00;101414.78;2081236;28;20583;-62
2023/06/25 01:39:52;;;;;;;10.27;5.73;;;;;;;22.77;100.00;101408.38;2081655;28;20239;-61
2023/06/25 01:40:52;;;;;;;10.47;6.30;;;;;;;22.77;100.00;101409.16;2073638;28;20174;-61
2023/06/25 01:41:52;;;;;;;7.80;5.83;;;;;;;22.76;100.00;101403.97;2081472;28;20709;-61
2023/06/25 01:42:53;;;;;;;16.20;6.07;;;;;;;22.77;100.00;101408.38;2081257;28;20185;-61
2023/06/25 01:43:53;;;;;;;11.90;5.67;;;;;;;22.78;100.00;101404.28;2081139;28;20189;-62
2023/06/25 01:44:54;;;;;;;11.87;5.57;;;;;;;22.78;100.00;101404.28;2081675;28;20196;-61
2023/06/25 01:45:54;;;;;;;11.00;5.60;;;;;;;22.79;100.00;101403.78;2081540;28;20188;-61
2023/06/25 01:46:56;;;;;;;9.97;5.50;;;;;;;22.82;100.00;101402.03;2081509;28;20304;-61
2023/06/25 01:47:58;;;;;;;12.43;5.50;;;;;;;22.80;100.00;101402.50;2081634;28;20211;-61
2023/06/25 01:48:58;;;;;;;12.23;5.77;;;;;;;22.81;100.00;101404.06;2081480;28;20212;-61
2023/06/25 01:49:58;;;;;;;7.40;5.47;;;;;;;22.81;100.00;101406.88;2081646;28;20181;-61
2023/06/25 01:50:59;;;;;;;8.10;5.27;;;;;;;22.79;100.00;101405.81;2081439;28;20219;-61
2023/06/25 01:52:01;;;;;;;11.13;5.90;;;;;;;22.35;100.00;101335.47;2081619;28;20272;-61
2023/06/25 01:53:01;;;;;;;11.07;6.47;;;;;;;22.80;100.00;101398.91;2081413;28;20185;-60
2023/06/25 01:54:02;;;;;;;10.07;6.20;;;;;;;22.75;100.00;101403.22;2080486;28;20621;-61
2023/06/25 01:55:02;;;;;;;10.33;6.47;;;;;;;22.71;100.00;101396.22;2080938;28;20177;-62
2023/06/25 01:56:03;;;;;;;7.57;5.73;;;;;;;22.62;100.00;101404.88;2081601;28;20749;-60
2023/06/25 01:57:04;;;;;;;10.77;6.03;;;;;;;22.63;100.00;101403.59;2081806;28;20256;-61
2023/06/25 01:58:04;;;;;;;11.57;6.27;;;;;;;22.05;100.00;101313.56;2081292;28;20177;-61
2023/06/25 01:59:05;;;;;;;13.03;6.80;;;;;;;22.57;100.00;101389.41;2081272;28;20189;-61
2023/06/25 02:00:08;;;;;;;10.03;6.50;;;;;;;22.62;100.00;101396.41;2081364;28;20275;-61
2023/06/25 02:01:08;;;;;;;12.53;6.57;;;;;;;22.51;100.00;101387.81;2081276;28;20189;-61
2023/06/25 02:02:09;;;;;;;12.90;6.63;;;;;;;22.54;100.00;101386.81;2081371;28;20201;-61
2023/06/25 02:03:09;;;;;;;12.07;6.00;;;;;;;22.58;100.00;101402.28;2081413;28;20569;-61
2023/06/25 02:04:10;;;;;;;14.27;7.00;;;;;;;22.59;100.00;101395.34;2079931;28;21052;-61
2023/06/25 02:05:11;;;;;;;14.53;6.10;;;;;;;22.65;100.00;101401.03;2082736;28;20176;-61
2023/06/25 02:06:11;;;;;;;13.90;6.50;;;;;;;22.66;100.00;101392.06;2081490;28;20176;-62
2023/06/25 02:07:12;;;;;;;11.73;6.67;;;;;;;22.67;100.00;101390.81;2081847;28;20165;-60
2023/06/25 02:08:12;;;;;;;13.57;6.13;;;;;;;22.66;100.00;101394.91;2081664;28;20271;-61
2023/06/25 02:09:16;;;;;;;12.97;6.13;;;;;;;22.65;100.00;101389.75;2081490;28;20189;-61
2023/06/25 02:10:16;;;;;;;10.60;6.30;;;;;;;22.63;100.00;101390.22;2081694;28;20216;-61
2023/06/25 02:11:16;;;;;;;16.40;6.80;;;;;;;22.62;100.00;101393.59;2081599;28;20193;-62
2023/06/25 02:12:17;;;;;;;10.23;6.23;;;;;;;22.52;100.00;101384.47;2081034;28;20188;-61
2023/06/25 02:13:17;;;;;;;13.70;6.47;;;;;;;22.36;100.00;101373.72;2081539;28;20212;-61
2023/06/25 02:14:18;;;;;;;13.67;7.07;;;;;;;22.52;100.00;101389.34;2080897;28;20186;-61
2023/06/25 02:15:18;;;;;;;9.47;6.27;;;;;;;22.55;100.00;101391.16;2081074;28;20298;-61
2023/06/25 02:16:18;;;;;;;11.30;6.60;;;;;;;22.50;100.00;101391.88;2081402;28;20271;-61
2023/06/25 02:17:19;;;;;;;11.60;7.03;;;;;;;22.31;100.00;101371.59;2081082;28;20219;-61
2023/06/25 02:18:19;;;;;;;10.10;6.40;;;;;;;22.41;100.00;101392.78;2081138;28;20193;-61
2023/06/25 02:19:20;;;;;;;16.47;6.77;;;;;;;22.10;100.00;101358.03;2081007;28;20260;-61
2023/06/25 02:20:20;;;;;;;13.07;6.60;;;;;;;22.03;100.00;101342.28;2081149;28;20216;-61
2023/06/25 02:21:20;;;;;;;11.77;6.63;;;;;;;22.30;100.00;101397.50;2081264;28;20189;-61
2023/06/25 02:22:21;;;;;;;12.67;6.47;;;;;;;22.32;100.00;101406.28;2081055;28;20593;-60
2023/06/25 02:23:21;;;;;;;18.50;7.20;;;;;;;22.33;100.00;101405.78;2081298;28;20251;-61
2023/06/25 02:24:22;;;;;;;16.20;6.30;;;;;;;22.34;100.00;101403.72;2081129;28;20281;-60
2023/06/25 02:25:23;;;;;;;12.43;6.70;;;;;;;22.32;100.00;101414.75;2081227;28;20185;-61
2023/06/25 02:26:23;;;;;;;14.77;6.67;;;;;;;22.33;100.00;101407.84;2081498;28;20192;-62
2023/06/25 02:27:23;;;;;;;12.53;6.27;;;;;;;22.26;100.00;101413.91;2081491;28;20650;-61
2023/06/25 02:28:24;;;;;;;10.93;6.37;;;;;;;22.28;100.00;101411.34;2081464;28;20706;-62
2023/06/25 02:29:24;;;;;;;14.93;6.40;;;;;;;22.31;100.00;101418.84;2081287;28;20677;-61
2023/06/25 02:30:25;;;;;;;14.07;6.80;;;;;;;22.31;100.00;101413.22;2080909;28;20177;-61
2023/06/25 02:31:25;;;;;;;11.60;6.37;;;;;;;22.24;100.00;101403.09;2081366;28;20189;-62
2023/06/25 02:32:26;;;;;;;12.57;6.10;;;;;;;22.33;100.00;101413.47;2081077;28;20173;-60
2023/06/25 02:33:26;;;;;;;15.63;6.03;;;;;;;22.34;100.00;101412.19;2081355;28;20588;-61
2023/06/25 02:34:26;;;;;;;10.20;6.00;;;;;;;22.35;100.00;101408.88;2080705;28;20619;-61
2023/06/25 02:35:27;;;;;;;12.30;6.47;;;;;;;22.39;100.00;101405.84;2081404;28;20207;-61
2023/06/25 02:36:27;;;;;;;8.57;6.00;;;;;;;22.41;100.00;101417.44;2081180;28;20184;-61
2023/06/25 02:37:28;;;;;;;10.43;6.10;;;;;;;22.46;100.00;101413.94;2081205;28;20189;-61
2023/06/25 02:38:28;;;;;;;10.80;6.30;;;;;;;22.44;100.00;101405.97;2080839;28;20173;-62
2023/06/25 02:39:29;;;;;;;12.77;6.57;;;;;;;22.45;100.00;101410.31;2081124;28;20205;-61
2023/06/25 02:40:29;;;;;;;9.37;6.00;;;;;;;22.47;100.00;101413.41;2081417;28;20220;-61
2023/06/25 02:41:30;;;;;;;17.67;6.53;;;;;;;22.44;100.00;101413.63;2073613;28;20178;-61
2023/06/25 02:42:30;;;;;;;11.17;6.47;;;;;;;22.41;100.00;101412.56;2079278;28;20267;-61
2023/06/25 02:43:31;;;;;;;10.07;6.40;;;;;;;22.39;100.00;101412.28;2076891;28;20177;-60
2023/06/25 02:44:31;;;;;;;10.57;6.00;;;;;;;22.43;100.00;101414.88;2075494;28;20192;-61
2023/06/25 02:45:32;;;;;;;9.77;5.90;;;;;;;22.44;100.00;101414.44;2081524;28;20603;-60
2023/06/25 02:46:32;;;;;;;11.80;6.00;;;;;;;22.49;100.00;101412.94;2080810;28;20726;-60
2023/06/25 02:47:33;;;;;;;9.73;6.37;;;;;;;22.52;100.00;101417.59;2081300;28;20165;-61
2023/06/25 02:48:36;;;;;;;10.47;6.50;;;;;;;22.10;100.00;101355.19;2081322;28;20201;-61
2023/06/25 02:49:36;;;;;;;13.40;6.50;;;;;;;22.52;100.00;101411.94;2081380;28;20189;-61
2023/06/25 02:50:37;;;;;;;13.50;6.77;;;;;;;22.52;100.00;101424.00;2081105;28;20185;-61
2023/06/25 02:51:37;;;;;;;14.23;6.50;;;;;;;22.52;100.00;101421.19;2081126;28;20189;-60
2023/06/25 02:52:38;;;;;;;13.13;7.10;;;;;;;22.55;100.00;101419.41;2080826;28;20689;-61
2023/06/25 02:53:38;;;;;;;9.67;6.97;;;;;;;22.26;100.00;101394.16;2080991;28;20272;-61
2023/06/25 02:54:38;;;;;;;7.97;6.60;;;;;;;22.51;100.00;101416.06;2081197;28;20202;-61
2023/06/25 02:55:39;;;;;;;15.07;6.83;;;;;;;22.52;100.00;101438.13;2081017;28;20630;-61
2023/06/25 02:56:39;;;;;;;13.63;7.53;;;;;;;22.53;100.00;101431.25;2080642;28;20583;-61
2023/06/25 02:57:40;;;;;;;11.13;7.33;;;;;;;22.53;100.00;101431.25;2080537;28;20611;-61
2023/06/25 02:58:40;;;;;;;13.13;7.10;;;;;;;22.52;100.00;101429.66;2080584;28;20259;-61
2023/06/25 02:59:40;;;;;;;13.93;7.57;;;;;;;22.51;100.00;101430.19;2080792;28;20246;-61
2023/06/25 03:00:41;;;;;;;16.20;8.17;;;;;;;22.53;100.00;101422.75;2081152;28;20185;-61
2023/06/25 03:01:41;;;;;;;18.20;7.67;;;;;;;22.48;100.00;101426.28;2081221;28;20720;-61
2023/06/25 03:02:42;;;;;;;17.53;7.97;;;;;;;22.42;100.00;101421.81;2079993;28;20813;-60
2023/06/25 03:03:42;;;;;;;15.00;7.77;;;;;;;22.39;100.00;101434.09;2081755;28;20555;-61
2023/06/25 03:04:43;;;;;;;14.50;8.60;;;;;;;22.40;100.00;101425.13;2080946;28;20219;-60
2023/06/25 03:05:43;;;;;;;14.07;8.30;;;;;;;22.45;100.00;101426.47;2080943;28;20180;-61
2023/06/25 03:06:43;;;;;;;21.17;8.60;;;;;;;22.43;100.00;101435.44;2080690;28;20271;-61
2023/06/25 03:07:57;;;;;;;16.10;7.80;;;;;;;22.47;100.00;101426.78;2081175;28;20181;-61
2023/06/25 03:08:57;;;;;;;14.73;8.00;;;;;;;22.38;100.00;101424.84;2080381;28;20211;-61
2023/06/25 03:09:58;;;;;;;22.57;8.90;;;;;;;22.38;100.00;101427.69;2079681;28;20730;-62
2023/06/25 03:10:58;;;;;;;22.67;8.93;;;;;;;22.43;100.00;101423.34;2080450;28;20280;-60
2023/06/25 03:11:58;;;;;;;17.53;9.03;;;;;;;22.43;100.00;101426.97;2080333;28;20188;-61
2023/06/25 03:12:59;;;;;;;24.87;9.07;;;;;;;22.44;100.00;101425.72;2080452;28;20189;-61
2023/06/25 03:14:00;;;;;;;28.37;9.50;;;;;;;22.48;100.00;101422.69;2080222;28;20267;-61
2023/06/25 03:15:00;;;;;;;22.63;8.80;;;;;;;22.49;100.00;101427.06;2080891;28;20180;-61
2023/06/25 03:16:00;;;;;;;25.47;9.07;;;;;;;22.49;100.00;101425.03;2081225;28;20260;-61
2023/06/25 03:17:02;;;;;;;22.93;8.80;;;;;;;22.44;100.00;101416.44;2080917;28;20565;-61
2023/06/25 03:18:02;;;;;;;28.53;9.27;;;;;;;21.90;100.00;101330.56;2081029;28;20196;-61
2023/06/25 03:19:03;;;;;;;22.37;9.70;;;;;;;22.40;100.00;101416.66;2080822;28;20189;-60
2023/06/25 03:20:04;;;;;;;22.07;10.30;;;;;;;22.23;100.00;101407.22;2080580;28;20181;-61
2023/06/25 03:21:04;;;;;;;21.40;10.13;;;;;;;22.27;100.00;101421.88;2083710;28;20810;-61
2023/06/25 03:22:05;;;;;;;13.43;8.93;;;;;;;22.26;100.00;101419.56;2085984;28;20743;-61
2023/06/25 03:23:05;;;;;;;20.73;9.63;;;;;;;22.23;100.00;101420.53;2080858;28;20781;-60
2023/06/25 03:24:05;;;;;;;19.30;8.60;;;;;;;22.22;100.00;101419.00;2080338;28;20193;-61
2023/06/25 03:25:06;;;;;;;23.00;9.40;;;;;;;22.18;100.00;101426.88;2080323;28;20185;-61
2023/06/25 03:26:07;;;;;;;20.53;8.90;;;;;;;22.16;100.00;101427.38;2080977;28;20181;-61
2023/06/25 03:27:07;;;;;;;26.70;8.80;;;;;;;22.13;100.00;101419.91;2080915;28;20643;-60
2023/06/25 03:28:08;;;;;;;20.90;8.27;;;;;;;22.12;100.00;101418.34;2080858;28;20193;-61
2023/06/25 03:29:08;;;;;;;23.93;7.63;;;;;;;22.12;100.00;101417.56;2081026;28;20300;-61
2023/06/25 03:30:09;;;;;;;20.20;7.80;;;;;;;22.12;100.00;101420.41;2080915;28;20192;-61
2023/06/25 03:31:09;;;;;;;12.83;7.17;;;;;;;22.10;100.00;101422.94;2080704;28;20177;-61
2023/06/25 03:32:10;;;;;;;16.67;7.73;;;;;;;22.14;100.00;101426.31;2080240;28;20176;-61
2023/06/25 03:33:10;;;;;;;18.60;7.87;;;;;;;22.14;100.00;101421.44;2080947;28;20264;-61
2023/06/25 03:34:10;;;;;;;20.30;6.80;;;;;;;22.13;100.00;101419.13;2079898;28;20192;-60
2023/06/25 03:35:11;;;;;;;15.97;7.00;;;;;;;22.13;100.00;101424.75;2080697;28;20181;-60
2023/06/25 03:36:12;;;;;;;22.60;6.90;;;;;;;22.03;100.00;101424.13;2080914;28;20185;-60
2023/06/25 03:37:13;;;;;;;18.13;7.30;;;;;;;22.15;100.00;101416.59;2081067;28;20177;-61
2023/06/25 03:38:13;;;;;;;24.40;7.47;;;;;;;22.17;100.00;101417.66;2080071;28;20231;-60
2023/06/25 03:39:14;;;;;;;19.93;6.43;;;;;;;22.16;100.00;101430.19;2080664;28;20709;-61
2023/06/25 03:40:14;;;;;;;12.13;6.60;;;;;;;22.21;100.00;101417.44;2080671;28;20177;-61
2023/06/25 03:41:15;;;;;;;16.53;6.23;;;;;;;22.25;100.00;101418.78;2080975;28;20193;-60
2023/06/25 03:42:15;;;;;;;21.43;6.53;;;;;;;22.28;100.00;101417.78;2080383;28;20177;-61
2023/06/25 03:43:16;;;;;;;12.40;6.17;;;;;;;22.23;100.00;101398.75;2080900;28;20682;-61
2023/06/25 03:44:16;;;;;;;16.70;7.77;;;;;;;22.37;100.00;101423.28;2080394;28;20227;-60
2023/06/25 03:45:16;;;;;;;18.33;7.13;;;;;;;22.10;100.00;101370.06;2080574;28;20200;-61
2023/06/25 03:46:17;;;;;;;17.10;6.87;;;;;;;22.44;100.00;101422.09;2080809;28;20184;-60
2023/06/25 03:47:17;;;;;;;19.20;6.70;;;;;;;22.46;100.00;101413.94;2080633;28;20217;-61
2023/06/25 03:48:18;;;;;;;19.73;6.23;;;;;;;22.14;100.00;101352.91;2080628;28;20260;-61
2023/06/25 03:49:18;;;;;;;14.53;7.00;;;;;;;22.58;100.00;101424.88;2080874;28;20705;-61
2023/06/25 03:50:19;;;;;;;16.40;6.50;;;;;;;22.59;100.00;101420.78;2080896;28;20538;-60
2023/06/25 03:51:19;;;;;;;20.70;6.63;;;;;;;22.62;100.00;101425.41;2080606;28;20234;-61
2023/06/25 03:52:19;;;;;;;11.33;6.20;;;;;;;22.65;100.00;101418.78;2079489;28;20216;-60
2023/06/25 03:53:20;;;;;;;10.93;5.80;;;;;;;22.69;100.00;101418.56;2080859;28;20181;-61
2023/06/25 03:54:21;;;;;;;18.07;6.37;;;;;;;22.74;100.00;101423.50;2080318;28;20192;-61
2023/06/25 03:55:21;;;;;;;16.63;6.10;;;;;;;22.75;100.00;101420.19;2080665;28;20240;-60
2023/06/25 03:56:22;;;;;;;18.57;6.57;;;;;;;22.75;100.00;101422.22;2080522;28;20185;-60
2023/06/25 03:57:23;;;;;;;18.30;6.37;;;;;;;22.81;100.00;101428.69;2080793;28;20208;-61
2023/06/25 03:58:23;;;;;;;13.93;6.03;;;;;;;22.83;100.00;101423.34;2080647;28;20681;-61
2023/06/25 03:59:23;;;;;;;13.47;5.83;;;;;;;22.88;100.00;101419.81;2073313;28;20206;-61
2023/06/25 04:00:24;;;;;;;11.17;5.90;;;;;;;22.91;100.00;101416.75;2078849;28;20181;-61
2023/06/25 04:01:24;;;;;;;14.40;6.23;;;;;;;22.97;100.00;101416.81;2080807;28;20185;-61
2023/06/25 04:02:25;;;;;;;16.07;6.40;;;;;;;23.02;100.00;101419.69;2080306;28;20674;-61
2023/06/25 04:03:25;;;;;;;10.87;5.50;;;;;;;23.04;100.00;101414.31;2080700;28;20654;-61
2023/06/25 04:04:26;;;;;;;10.97;5.50;;;;;;;23.09;100.00;101415.63;2080194;28;20618;-61
2023/06/25 04:05:26;;;;;;;17.23;5.80;;;;;;;23.09;100.00;101410.75;2079387;28;20185;-60
2023/06/25 04:06:26;;;;;;;13.37;5.73;;;;;;;23.13;100.00;101414.13;2079897;28;20666;-61
2023/06/25 04:07:27;;;;;;;15.00;5.77;;;;;;;23.10;100.00;101406.66;2073269;28;20185;-61
2023/06/25 04:08:27;;;;;;;9.03;4.93;;;;;;;23.15;100.00;101420.06;2078904;28;20192;-60
2023/06/25 04:09:28;;;;;;;14.70;5.60;;;;;;;23.11;100.00;101398.94;2080665;28;20252;-60
2023/06/25 04:10:28;;;;;;;15.13;6.10;;;;;;;23.22;100.00;101416.03;2080397;28;20188;-60
2023/06/25 04:11:29;;;;;;;13.47;5.80;;;;;;;23.06;100.00;101389.16;2080485;28;20566;-61
2023/06/25 04:12:29;;;;;;;13.13;6.40;;;;;;;23.28;100.00;101414.06;2080063;28;20272;-61
2023/06/25 04:13:30;;;;;;;15.13;6.23;;;;;;;23.26;100.00;101416.59;2080497;28;20204;-60
2023/06/25 04:14:30;;;;;;;12.57;6.07;;;;;;;23.30;100.00;101411.50;2079769;28;20180;-62
2023/06/25 04:15:30;;;;;;;12.97;6.03;;;;;;;23.31;100.00;101413.81;2080899;28;20177;-61
2023/06/25 04:16:31;;;;;;;18.50;6.37;;;;;;;23.32;100.00;101418.19;2080364;28;20184;-61
2023/06/25 04:17:31;;;;;;;13.90;5.97;;;;;;;23.31;100.00;101422.31;2080383;28;20193;-61
2023/06/25 04:18:32;;;;;;;17.10;6.57;;;;;;;23.34;100.00;101409.22;2080395;28;20259;-61
2023/06/25 04:19:32;;;;;;;17.20;5.97;;;;;;;23.31;100.00;101405.34;2079882;28;20209;-60
2023/06/25 04:20:32;;;;;;;13.47;6.27;;;;;;;23.36;100.00;101415.13;2080415;28;20193;-60
2023/06/25 04:21:34;;;;;;;15.67;6.40;;;;;;;23.35;100.00;101414.38;2080593;28;20181;-61
2023/06/25 04:22:35;;;;;;;19.27;6.77;;;;;;;23.34;100.00;101412.03;2080134;28;20609;-61
2023/06/25 04:23:35;;;;;;;20.23;7.20;;;;;;;23.37;100.00;101416.69;2080460;28;20177;-61
2023/06/25 04:24:36;;;;;;;21.03;7.30;;;;;;;22.68;100.00;101301.94;2080277;28;20196;-60
2023/06/25 04:25:36;;;;;;;25.13;7.63;;;;;;;23.41;100.00;101418.03;2080223;28;20192;-61
2023/06/25 04:26:36;;;;;;;18.53;6.87;;;;;;;23.44;100.00;101419.81;2080482;28;20188;-60
2023/06/25 04:27:37;;;;;;;20.97;7.10;;;;;;;23.48;100.00;101411.09;2080678;28;20199;-61
2023/06/25 04:28:38;;;;;;;20.47;6.33;;;;;;;23.48;100.00;101420.38;2080472;28;20238;-60
2023/06/25 04:29:38;;;;;;;27.53;7.37;;;;;;;23.49;100.00;101415.50;2080482;28;20174;-61
2023/06/25 04:30:39;;;;;;;20.70;7.33;;;;;;;23.50;100.00;101417.81;2080409;28;20181;-61
2023/06/25 04:31:39;;;;;;;20.63;7.07;;;;;;;23.50;100.00;101414.97;2080238;28;20648;-60
2023/06/25 04:32:40;;;;;;;15.97;6.67;;;;;;;23.51;100.00;101425.03;2079511;28;20603;-60
2023/06/25 04:33:43;;;;;;;23.53;6.23;;;;;;;23.53;100.00;101411.16;2072395;28;20633;-61
2023/06/25 04:34:43;;;;;;;15.70;6.93;;;;;;;23.52;100.00;101422.97;2078624;28;20196;-61
2023/06/25 04:35:44;;;;;;;18.07;6.40;;;;;;;23.52;100.00;101420.16;2080503;28;20196;-61
2023/06/25 04:36:44;;;;;;;16.90;6.40;;;;;;;23.43;100.00;101392.81;2075815;28;20443;-61
2023/06/25 04:37:44;;;;;;;19.70;6.40;;;;;;;23.60;100.00;101412.75;2075527;28;20271;-61